sensor_id;sensor_type;location;lat;lon;timestamp;temperature;humidity
22779;DHT22;11556;51.194;3.800;2022-12-11T00:01:53;3.30;99.90
22779;DHT22;11556;51.194;3.800;2022-12-11T00:04:19;3.20;99.90
22779;DHT22;11556;51.194;3.800;2022-12-11T00:06:44;3.30;99.90
22779;DHT22;11556;51.194;3.800;2022-12-11T00:09:10;3.20;99.90
22779;DHT22;11556;51.194;3.800;2022-12-11T00:11:36;3.30;99.90
22779;DHT22;11556;51.194;3.800;2022-12-11T00:14:02;3.20;99.90
22779;DHT22;11556;51.194;3.800;2022-12-11T00:16:27;3.20;99.90
22779;DHT22;11556;51.194;3.800;2022-12-11T00:18:54;3.30;99.90
22779;DHT22;11556;51.194;3.800;2022-12-11T00:21:19;3.30;99.90
22779;DHT22;11556;51.194;3.800;2022-12-11T00:23:45;3.30;99.90
22779;DHT22;11556;51.194;3.800;2022-12-11T00:26:14;3.30;99.90
22779;DHT22;11556;51.194;3.800;2022-12-11T00:28:41;3.20;99.90
22779;DHT22;11556;51.194;3.800;2022-12-11T00:31:08;3.20;99.90
22779;DHT22;11556;51.194;3.800;2022-12-11T00:33:35;3.10;99.90
22779;DHT22;11556;51.194;3.800;2022-12-11T00:36:01;2.90;99.90
22779;DHT22;11556;51.194;3.800;2022-12-11T00:38:26;2.80;99.90
22779;DHT22;11556;51.194;3.800;2022-12-11T00:40:57;2.80;99.90
22779;DHT22;11556;51.194;3.800;2022-12-11T00:43:23;2.90;99.90
22779;DHT22;11556;51.194;3.800;2022-12-11T00:45:49;3.00;99.90
22779;DHT22;11556;51.194;3.800;2022-12-11T00:48:14;3.00;99.90
22779;DHT22;11556;51.194;3.800;2022-12-11T00:50:40;3.00;99.90
22779;DHT22;11556;51.194;3.800;2022-12-11T00:53:06;3.20;99.90
22779;DHT22;11556;51.194;3.800;2022-12-11T00:55:36;3.10;99.90
22779;DHT22;11556;51.194;3.800;2022-12-11T00:58:02;3.10;99.90
22779;DHT22;11556;51.194;3.800;2022-12-11T01:00:28;3.10;99.90
22779;DHT22;11556;51.194;3.800;2022-12-11T01:02:54;3.10;99.90
22779;DHT22;11556;51.194;3.800;2022-12-11T01:05:19;3.20;99.90
22779;DHT22;11556;51.194;3.800;2022-12-11T01:07:45;3.30;99.90
22779;DHT22;11556;51.194;3.800;2022-12-11T01:10:12;3.30;99.90
22779;DHT22;11556;51.194;3.800;2022-12-11T01:12:52;3.30;99.90
22779;DHT22;11556;51.194;3.800;2022-12-11T01:15:19;3.30;99.90
22779;DHT22;11556;51.194;3.800;2022-12-11T01:17:45;3.30;99.90
22779;DHT22;11556;51.194;3.800;2022-12-11T01:20:11;3.40;99.90
22779;DHT22;11556;51.194;3.800;2022-12-11T01:22:37;3.40;99.90
22779;DHT22;11556;51.194;3.800;2022-12-11T01:25:03;3.40;99.90
22779;DHT22;11556;51.194;3.800;2022-12-11T01:27:29;3.30;99.90
22779;DHT22;11556;51.194;3.800;2022-12-11T01:29:55;3.40;99.90
22779;DHT22;11556;51.194;3.800;2022-12-11T01:32:20;3.30;99.90
22779;DHT22;11556;51.194;3.800;2022-12-11T01:34:46;3.40;99.90
22779;DHT22;11556;51.194;3.800;2022-12-11T01:37:12;3.50;99.90
22779;DHT22;11556;51.194;3.800;2022-12-11T01:39:37;3.40;99.90
22779;DHT22;11556;51.194;3.800;2022-12-11T01:42:03;3.50;99.90
22779;DHT22;11556;51.194;3.800;2022-12-11T01:46:54;3.40;99.90
22779;DHT22;11556;51.194;3.800;2022-12-11T01:49:22;3.40;99.90
22779;DHT22;11556;51.194;3.800;2022-12-11T01:51:53;3.50;99.90
22779;DHT22;11556;51.194;3.800;2022-12-11T01:54:21;3.40;99.90
22779;DHT22;11556;51.194;3.800;2022-12-11T01:56:49;3.40;99.90
22779;DHT22;11556;51.194;3.800;2022-12-11T01:59:19;3.40;99.90
22779;DHT22;11556;51.194;3.800;2022-12-11T02:01:50;3.50;99.90
22779;DHT22;11556;51.194;3.800;2022-12-11T02:04:19;3.50;99.90
22779;DHT22;11556;51.194;3.800;2022-12-11T02:06:47;3.50;99.90
22779;DHT22;11556;51.194;3.800;2022-12-11T02:09:18;3.50;99.90
22779;DHT22;11556;51.194;3.800;2022-12-11T02:14:58;3.60;99.90
22779;DHT22;11556;51.194;3.800;2022-12-11T02:25:22;3.50;99.90
22779;DHT22;11556;51.194;3.800;2022-12-11T02:27:53;3.50;99.90
22779;DHT22;11556;51.194;3.800;2022-12-11T02:30:22;3.50;99.90
22779;DHT22;11556;51.194;3.800;2022-12-11T02:32:53;3.50;99.90
22779;DHT22;11556;51.194;3.800;2022-12-11T02:35:32;3.40;99.90
22779;DHT22;11556;51.194;3.800;2022-12-11T02:40:55;3.50;99.90
22779;DHT22;11556;51.194;3.800;2022-12-11T02:43:23;3.50;99.90
22779;DHT22;11556;51.194;3.800;2022-12-11T02:45:50;3.50;99.90
22779;DHT22;11556;51.194;3.800;2022-12-11T02:48:17;3.60;99.90
22779;DHT22;11556;51.194;3.800;2022-12-11T02:50:46;3.70;99.90
22779;DHT22;11556;51.194;3.800;2022-12-11T02:53:16;3.70;99.90
22779;DHT22;11556;51.194;3.800;2022-12-11T02:55:44;3.50;99.90
22779;DHT22;11556;51.194;3.800;2022-12-11T02:58:25;3.40;99.90
22779;DHT22;11556;51.194;3.800;2022-12-11T03:00:52;3.40;99.90
22779;DHT22;11556;51.194;3.800;2022-12-11T03:03:18;3.40;99.90
22779;DHT22;11556;51.194;3.800;2022-12-11T03:05:43;3.30;99.90
22779;DHT22;11556;51.194;3.800;2022-12-11T03:08:10;3.50;99.90
22779;DHT22;11556;51.194;3.800;2022-12-11T03:10:36;3.60;99.90
22779;DHT22;11556;51.194;3.800;2022-12-11T03:13:03;3.70;99.90
22779;DHT22;11556;51.194;3.800;2022-12-11T03:21:25;3.60;99.90
22779;DHT22;11556;51.194;3.800;2022-12-11T03:24:36;3.50;99.90
22779;DHT22;11556;51.194;3.800;2022-12-11T03:29:54;3.60;99.90
22779;DHT22;11556;51.194;3.800;2022-12-11T03:32:26;3.60;99.90
22779;DHT22;11556;51.194;3.800;2022-12-11T03:34:58;3.50;99.90
22779;DHT22;11556;51.194;3.800;2022-12-11T03:37:28;3.60;99.90
22779;DHT22;11556;51.194;3.800;2022-12-11T03:39:58;3.70;99.90
22779;DHT22;11556;51.194;3.800;2022-12-11T03:42:26;3.80;99.90
22779;DHT22;11556;51.194;3.800;2022-12-11T03:44:53;3.80;99.90
22779;DHT22;11556;51.194;3.800;2022-12-11T03:47:22;3.70;99.90
22779;DHT22;11556;51.194;3.800;2022-12-11T03:49:51;3.80;99.90
22779;DHT22;11556;51.194;3.800;2022-12-11T03:52:18;3.70;99.90
22779;DHT22;11556;51.194;3.800;2022-12-11T03:54:46;3.60;99.90
22779;DHT22;11556;51.194;3.800;2022-12-11T03:57:17;3.50;99.90
22779;DHT22;11556;51.194;3.800;2022-12-11T03:59:45;3.60;99.90
22779;DHT22;11556;51.194;3.800;2022-12-11T04:02:11;3.60;99.90
22779;DHT22;11556;51.194;3.800;2022-12-11T04:04:38;3.60;99.90
22779;DHT22;11556;51.194;3.800;2022-12-11T04:07:04;3.50;99.90
22779;DHT22;11556;51.194;3.800;2022-12-11T04:09:30;3.30;99.90
22779;DHT22;11556;51.194;3.800;2022-12-11T04:11:56;3.30;99.90
22779;DHT22;11556;51.194;3.800;2022-12-11T04:14:21;3.40;99.90
22779;DHT22;11556;51.194;3.800;2022-12-11T04:17:05;3.30;99.90
22779;DHT22;11556;51.194;3.800;2022-12-11T04:19:31;3.30;99.90
22779;DHT22;11556;51.194;3.800;2022-12-11T04:22:16;3.50;99.90
22779;DHT22;11556;51.194;3.800;2022-12-11T04:24:51;3.70;99.90
22779;DHT22;11556;51.194;3.800;2022-12-11T04:27:17;3.70;99.90
22779;DHT22;11556;51.194;3.800;2022-12-11T04:30:04;3.80;99.90
22779;DHT22;11556;51.194;3.800;2022-12-11T04:32:30;3.70;99.90
22779;DHT22;11556;51.194;3.800;2022-12-11T04:34:56;3.60;99.90
22779;DHT22;11556;51.194;3.800;2022-12-11T04:37:21;3.50;99.90
22779;DHT22;11556;51.194;3.800;2022-12-11T04:39:47;3.50;99.90
22779;DHT22;11556;51.194;3.800;2022-12-11T04:42:13;3.40;99.90
22779;DHT22;11556;51.194;3.800;2022-12-11T04:44:38;3.50;99.90
22779;DHT22;11556;51.194;3.800;2022-12-11T04:47:04;3.40;99.90
22779;DHT22;11556;51.194;3.800;2022-12-11T04:49:29;3.30;99.90
22779;DHT22;11556;51.194;3.800;2022-12-11T04:51:55;3.40;99.90
22779;DHT22;11556;51.194;3.800;2022-12-11T04:54:21;3.40;99.90
22779;DHT22;11556;51.194;3.800;2022-12-11T04:56:46;3.50;99.90
22779;DHT22;11556;51.194;3.800;2022-12-11T04:59:12;3.40;99.90
22779;DHT22;11556;51.194;3.800;2022-12-11T05:01:37;3.40;99.90
22779;DHT22;11556;51.194;3.800;2022-12-11T05:04:03;3.50;99.90
22779;DHT22;11556;51.194;3.800;2022-12-11T05:06:29;3.50;99.90
22779;DHT22;11556;51.194;3.800;2022-12-11T05:08:54;3.50;99.90
22779;DHT22;11556;51.194;3.800;2022-12-11T05:11:20;3.50;99.90
22779;DHT22;11556;51.194;3.800;2022-12-11T05:13:45;3.70;99.90
22779;DHT22;11556;51.194;3.800;2022-12-11T05:16:13;3.70;99.90
22779;DHT22;11556;51.194;3.800;2022-12-11T05:18:39;3.70;99.90
22779;DHT22;11556;51.194;3.800;2022-12-11T05:21:08;3.60;99.90
22779;DHT22;11556;51.194;3.800;2022-12-11T05:23:34;3.70;99.90
22779;DHT22;11556;51.194;3.800;2022-12-11T05:26:03;3.60;99.90
22779;DHT22;11556;51.194;3.800;2022-12-11T05:28:31;3.40;99.90
22779;DHT22;11556;51.194;3.800;2022-12-11T05:30:57;3.40;99.90
22779;DHT22;11556;51.194;3.800;2022-12-11T05:33:23;3.50;99.90
22779;DHT22;11556;51.194;3.800;2022-12-11T05:35:49;3.50;99.90
22779;DHT22;11556;51.194;3.800;2022-12-11T05:38:14;3.40;99.90
22779;DHT22;11556;51.194;3.800;2022-12-11T05:40:40;3.40;99.90
22779;DHT22;11556;51.194;3.800;2022-12-11T05:43:05;3.40;99.90
22779;DHT22;11556;51.194;3.800;2022-12-11T05:45:31;3.30;99.90
22779;DHT22;11556;51.194;3.800;2022-12-11T05:47:57;3.30;99.90
22779;DHT22;11556;51.194;3.800;2022-12-11T05:50:22;3.50;99.90
22779;DHT22;11556;51.194;3.800;2022-12-11T05:52:48;3.50;99.90
22779;DHT22;11556;51.194;3.800;2022-12-11T05:55:13;3.40;99.90
22779;DHT22;11556;51.194;3.800;2022-12-11T05:57:39;3.50;99.90
22779;DHT22;11556;51.194;3.800;2022-12-11T06:00:05;3.50;99.90
22779;DHT22;11556;51.194;3.800;2022-12-11T06:02:35;3.50;99.90
22779;DHT22;11556;51.194;3.800;2022-12-11T06:05:01;3.50;99.90
22779;DHT22;11556;51.194;3.800;2022-12-11T06:07:27;3.70;99.90
22779;DHT22;11556;51.194;3.800;2022-12-11T06:09:52;3.60;99.90
22779;DHT22;11556;51.194;3.800;2022-12-11T06:12:18;3.70;99.90
22779;DHT22;11556;51.194;3.800;2022-12-11T06:14:43;3.60;99.90
22779;DHT22;11556;51.194;3.800;2022-12-11T06:17:09;3.50;99.90
22779;DHT22;11556;51.194;3.800;2022-12-11T06:19:35;3.50;99.90
22779;DHT22;11556;51.194;3.800;2022-12-11T06:22:00;3.50;99.90
22779;DHT22;11556;51.194;3.800;2022-12-11T06:24:26;3.50;99.90
22779;DHT22;11556;51.194;3.800;2022-12-11T06:26:51;3.60;99.90
22779;DHT22;11556;51.194;3.800;2022-12-11T06:29:17;3.70;99.90
22779;DHT22;11556;51.194;3.800;2022-12-11T06:31:42;3.60;99.90
22779;DHT22;11556;51.194;3.800;2022-12-11T06:34:11;3.70;99.90
22779;DHT22;11556;51.194;3.800;2022-12-11T06:36:37;3.70;99.90
22779;DHT22;11556;51.194;3.800;2022-12-11T06:39:02;3.60;99.90
22779;DHT22;11556;51.194;3.800;2022-12-11T06:41:28;3.60;99.90
22779;DHT22;11556;51.194;3.800;2022-12-11T06:43:53;3.60;99.90
22779;DHT22;11556;51.194;3.800;2022-12-11T06:46:20;3.50;99.90
22779;DHT22;11556;51.194;3.800;2022-12-11T06:48:46;3.60;99.90
22779;DHT22;11556;51.194;3.800;2022-12-11T06:51:22;3.60;99.90
22779;DHT22;11556;51.194;3.800;2022-12-11T06:53:55;3.70;99.90
22779;DHT22;11556;51.194;3.800;2022-12-11T06:56:22;3.80;99.90
22779;DHT22;11556;51.194;3.800;2022-12-11T06:58:47;3.70;99.90
22779;DHT22;11556;51.194;3.800;2022-12-11T07:01:15;3.70;99.90
22779;DHT22;11556;51.194;3.800;2022-12-11T07:03:41;3.70;99.90
22779;DHT22;11556;51.194;3.800;2022-12-11T07:06:06;3.50;99.90
22779;DHT22;11556;51.194;3.800;2022-12-11T07:08:32;3.60;99.90
22779;DHT22;11556;51.194;3.800;2022-12-11T07:11:03;3.70;99.90
22779;DHT22;11556;51.194;3.800;2022-12-11T07:13:29;3.90;99.90
22779;DHT22;11556;51.194;3.800;2022-12-11T07:15:56;3.80;99.90
22779;DHT22;11556;51.194;3.800;2022-12-11T07:18:22;3.70;99.90
22779;DHT22;11556;51.194;3.800;2022-12-11T07:20:47;3.80;99.90
22779;DHT22;11556;51.194;3.800;2022-12-11T07:23:13;3.80;99.90
22779;DHT22;11556;51.194;3.800;2022-12-11T07:25:38;3.80;99.90
22779;DHT22;11556;51.194;3.800;2022-12-11T07:28:04;3.70;99.90
22779;DHT22;11556;51.194;3.800;2022-12-11T07:30:29;3.80;99.90
22779;DHT22;11556;51.194;3.800;2022-12-11T07:32:55;3.70;99.90
22779;DHT22;11556;51.194;3.800;2022-12-11T07:35:20;3.70;99.90
22779;DHT22;11556;51.194;3.800;2022-12-11T07:37:46;3.70;99.90
22779;DHT22;11556;51.194;3.800;2022-12-11T07:40:12;3.70;99.90
22779;DHT22;11556;51.194;3.800;2022-12-11T07:42:38;3.60;99.90
22779;DHT22;11556;51.194;3.800;2022-12-11T07:45:03;3.50;99.90
22779;DHT22;11556;51.194;3.800;2022-12-11T07:47:29;3.60;99.90
22779;DHT22;11556;51.194;3.800;2022-12-11T07:49:55;3.50;99.90
22779;DHT22;11556;51.194;3.800;2022-12-11T07:52:20;3.60;99.90
22779;DHT22;11556;51.194;3.800;2022-12-11T07:54:46;3.60;99.90
22779;DHT22;11556;51.194;3.800;2022-12-11T07:57:11;3.70;99.90
22779;DHT22;11556;51.194;3.800;2022-12-11T07:59:37;3.70;99.90
22779;DHT22;11556;51.194;3.800;2022-12-11T08:02:03;3.70;99.90
22779;DHT22;11556;51.194;3.800;2022-12-11T08:04:29;3.60;99.90
22779;DHT22;11556;51.194;3.800;2022-12-11T08:06:54;3.60;99.90
22779;DHT22;11556;51.194;3.800;2022-12-11T08:09:21;3.50;99.90
22779;DHT22;11556;51.194;3.800;2022-12-11T08:11:48;3.50;99.90
22779;DHT22;11556;51.194;3.800;2022-12-11T08:14:14;3.50;99.90
22779;DHT22;11556;51.194;3.800;2022-12-11T08:16:40;3.50;99.90
22779;DHT22;11556;51.194;3.800;2022-12-11T08:19:07;3.40;99.90
22779;DHT22;11556;51.194;3.800;2022-12-11T08:21:33;3.40;99.90
22779;DHT22;11556;51.194;3.800;2022-12-11T08:23:58;3.20;99.90
22779;DHT22;11556;51.194;3.800;2022-12-11T08:26:26;3.30;99.90
22779;DHT22;11556;51.194;3.800;2022-12-11T08:28:53;3.20;99.90
22779;DHT22;11556;51.194;3.800;2022-12-11T08:31:19;3.10;99.90
22779;DHT22;11556;51.194;3.800;2022-12-11T08:33:45;3.10;99.90
22779;DHT22;11556;51.194;3.800;2022-12-11T08:36:13;3.10;99.90
22779;DHT22;11556;51.194;3.800;2022-12-11T08:38:39;3.10;99.90
22779;DHT22;11556;51.194;3.800;2022-12-11T08:41:17;3.20;99.90
22779;DHT22;11556;51.194;3.800;2022-12-11T08:43:43;3.30;99.90
22779;DHT22;11556;51.194;3.800;2022-12-11T08:46:09;3.20;99.90
22779;DHT22;11556;51.194;3.800;2022-12-11T08:48:36;3.20;99.90
22779;DHT22;11556;51.194;3.800;2022-12-11T08:51:06;3.20;99.90
22779;DHT22;11556;51.194;3.800;2022-12-11T08:53:32;3.20;99.90
22779;DHT22;11556;51.194;3.800;2022-12-11T08:56:12;3.20;99.90
22779;DHT22;11556;51.194;3.800;2022-12-11T08:58:39;3.30;99.90
22779;DHT22;11556;51.194;3.800;2022-12-11T09:01:10;3.20;99.90
22779;DHT22;11556;51.194;3.800;2022-12-11T09:03:37;3.20;99.90
22779;DHT22;11556;51.194;3.800;2022-12-11T09:06:05;3.20;99.90
22779;DHT22;11556;51.194;3.800;2022-12-11T09:08:31;3.00;99.90
22779;DHT22;11556;51.194;3.800;2022-12-11T09:11:04;3.10;99.90
22779;DHT22;11556;51.194;3.800;2022-12-11T09:13:30;3.10;99.90
22779;DHT22;11556;51.194;3.800;2022-12-11T09:15:56;3.00;99.90
22779;DHT22;11556;51.194;3.800;2022-12-11T09:18:21;2.90;99.90
22779;DHT22;11556;51.194;3.800;2022-12-11T09:20:47;2.90;99.90
22779;DHT22;11556;51.194;3.800;2022-12-11T09:23:12;2.90;99.90
22779;DHT22;11556;51.194;3.800;2022-12-11T09:25:39;2.80;99.90
22779;DHT22;11556;51.194;3.800;2022-12-11T09:28:04;2.80;99.90
22779;DHT22;11556;51.194;3.800;2022-12-11T09:30:30;2.80;99.90
22779;DHT22;11556;51.194;3.800;2022-12-11T09:32:56;2.80;99.90
22779;DHT22;11556;51.194;3.800;2022-12-11T09:35:21;2.90;99.90
22779;DHT22;11556;51.194;3.800;2022-12-11T09:37:47;2.90;99.90
22779;DHT22;11556;51.194;3.800;2022-12-11T09:40:13;3.00;99.90
22779;DHT22;11556;51.194;3.800;2022-12-11T09:43:02;2.80;99.90
22779;DHT22;11556;51.194;3.800;2022-12-11T09:45:30;2.90;99.90
22779;DHT22;11556;51.194;3.800;2022-12-11T09:47:56;2.80;99.90
22779;DHT22;11556;51.194;3.800;2022-12-11T09:50:29;2.80;99.90
22779;DHT22;11556;51.194;3.800;2022-12-11T09:58:23;3.00;99.90
22779;DHT22;11556;51.194;3.800;2022-12-11T10:03:57;3.10;99.90
22779;DHT22;11556;51.194;3.800;2022-12-11T10:06:35;3.20;99.90
22779;DHT22;11556;51.194;3.800;2022-12-11T10:09:16;3.20;99.90
22779;DHT22;11556;51.194;3.800;2022-12-11T10:12:09;3.20;99.90
22779;DHT22;11556;51.194;3.800;2022-12-11T10:17:37;3.20;99.90
22779;DHT22;11556;51.194;3.800;2022-12-11T10:20:30;3.20;99.90
22779;DHT22;11556;51.194;3.800;2022-12-11T10:22:59;3.20;99.90
22779;DHT22;11556;51.194;3.800;2022-12-11T10:25:31;3.20;99.90
22779;DHT22;11556;51.194;3.800;2022-12-11T10:27:57;3.30;99.90
22779;DHT22;11556;51.194;3.800;2022-12-11T10:30:26;3.30;99.90
22779;DHT22;11556;51.194;3.800;2022-12-11T10:35:54;3.30;99.90
22779;DHT22;11556;51.194;3.800;2022-12-11T10:40:55;3.30;99.90
22779;DHT22;11556;51.194;3.800;2022-12-11T10:43:36;3.40;99.90
22779;DHT22;11556;51.194;3.800;2022-12-11T10:46:04;3.30;99.90
22779;DHT22;11556;51.194;3.800;2022-12-11T10:48:29;3.20;99.90
22779;DHT22;11556;51.194;3.800;2022-12-11T10:50:59;3.30;99.90
22779;DHT22;11556;51.194;3.800;2022-12-11T10:53:25;3.40;99.90
22779;DHT22;11556;51.194;3.800;2022-12-11T10:55:51;3.30;99.90
22779;DHT22;11556;51.194;3.800;2022-12-11T10:58:24;3.30;99.90
22779;DHT22;11556;51.194;3.800;2022-12-11T11:01:13;3.40;99.90
22779;DHT22;11556;51.194;3.800;2022-12-11T11:03:57;3.50;99.90
22779;DHT22;11556;51.194;3.800;2022-12-11T11:06:25;3.50;99.90
22779;DHT22;11556;51.194;3.800;2022-12-11T11:08:56;3.50;99.90
22779;DHT22;11556;51.194;3.800;2022-12-11T11:11:28;3.50;99.90
22779;DHT22;11556;51.194;3.800;2022-12-11T11:14:17;3.40;99.90
22779;DHT22;11556;51.194;3.800;2022-12-11T11:16:45;3.30;99.90
22779;DHT22;11556;51.194;3.800;2022-12-11T11:19:30;3.40;99.90
22779;DHT22;11556;51.194;3.800;2022-12-11T11:21:59;3.40;99.90
22779;DHT22;11556;51.194;3.800;2022-12-11T11:24:35;3.40;99.90
22779;DHT22;11556;51.194;3.800;2022-12-11T11:27:20;3.40;99.90
22779;DHT22;11556;51.194;3.800;2022-12-11T11:29:55;3.40;99.90
22779;DHT22;11556;51.194;3.800;2022-12-11T11:32:30;3.40;99.90
22779;DHT22;11556;51.194;3.800;2022-12-11T11:35:19;3.50;99.90
22779;DHT22;11556;51.194;3.800;2022-12-11T11:37:53;3.40;99.90
22779;DHT22;11556;51.194;3.800;2022-12-11T11:40:40;3.40;99.90
22779;DHT22;11556;51.194;3.800;2022-12-11T11:46:20;3.20;99.90
22779;DHT22;11556;51.194;3.800;2022-12-11T11:51:33;3.50;99.90
22779;DHT22;11556;51.194;3.800;2022-12-11T11:54:02;3.80;99.90
22779;DHT22;11556;51.194;3.800;2022-12-11T11:56:34;4.00;99.90
22779;DHT22;11556;51.194;3.800;2022-12-11T11:59:26;4.10;99.90
22779;DHT22;11556;51.194;3.800;2022-12-11T12:01:56;4.00;99.90
22779;DHT22;11556;51.194;3.800;2022-12-11T12:04:23;4.00;99.90
22779;DHT22;11556;51.194;3.800;2022-12-11T12:10:09;4.00;99.90
22779;DHT22;11556;51.194;3.800;2022-12-11T12:12:56;4.10;99.90
22779;DHT22;11556;51.194;3.800;2022-12-11T12:21:35;3.90;99.90
22779;DHT22;11556;51.194;3.800;2022-12-11T12:27:27;4.00;99.90
22779;DHT22;11556;51.194;3.800;2022-12-11T12:30:01;4.00;99.90
22779;DHT22;11556;51.194;3.800;2022-12-11T12:32:46;4.00;99.90
22779;DHT22;11556;51.194;3.800;2022-12-11T12:35:37;3.90;99.90
22779;DHT22;11556;51.194;3.800;2022-12-11T12:38:19;3.80;99.90
22779;DHT22;11556;51.194;3.800;2022-12-11T12:46:58;3.80;99.90
22779;DHT22;11556;51.194;3.800;2022-12-11T12:49:42;3.80;99.90
22779;DHT22;11556;51.194;3.800;2022-12-11T12:52:21;3.60;99.90
22779;DHT22;11556;51.194;3.800;2022-12-11T12:54:51;3.40;99.90
22779;DHT22;11556;51.194;3.800;2022-12-11T12:57:37;3.40;99.90
22779;DHT22;11556;51.194;3.800;2022-12-11T13:00:05;3.40;99.90
22779;DHT22;11556;51.194;3.800;2022-12-11T13:02:32;3.40;99.90
22779;DHT22;11556;51.194;3.800;2022-12-11T13:05:18;3.50;99.90
22779;DHT22;11556;51.194;3.800;2022-12-11T13:07:51;3.60;99.90
22779;DHT22;11556;51.194;3.800;2022-12-11T13:10:32;3.70;99.90
22779;DHT22;11556;51.194;3.800;2022-12-11T13:12:59;3.70;99.90
22779;DHT22;11556;51.194;3.800;2022-12-11T13:15:37;3.80;99.90
22779;DHT22;11556;51.194;3.800;2022-12-11T13:18:29;3.90;99.90
22779;DHT22;11556;51.194;3.800;2022-12-11T13:20:55;3.80;99.90
22779;DHT22;11556;51.194;3.800;2022-12-11T13:23:32;3.70;99.90
22779;DHT22;11556;51.194;3.800;2022-12-11T13:26:00;3.80;99.90
22779;DHT22;11556;51.194;3.800;2022-12-11T13:28:46;3.80;99.90
22779;DHT22;11556;51.194;3.800;2022-12-11T13:33:51;3.70;99.90
22779;DHT22;11556;51.194;3.800;2022-12-11T13:38:51;3.70;99.90
22779;DHT22;11556;51.194;3.800;2022-12-11T13:41:18;3.70;99.90
22779;DHT22;11556;51.194;3.800;2022-12-11T13:43:46;3.70;99.90
22779;DHT22;11556;51.194;3.800;2022-12-11T13:46:13;3.70;99.90
22779;DHT22;11556;51.194;3.800;2022-12-11T13:48:46;3.70;99.90
22779;DHT22;11556;51.194;3.800;2022-12-11T13:51:16;3.70;99.90
22779;DHT22;11556;51.194;3.800;2022-12-11T13:53:42;3.70;99.90
22779;DHT22;11556;51.194;3.800;2022-12-11T13:56:20;3.50;99.90
22779;DHT22;11556;51.194;3.800;2022-12-11T13:58:47;3.50;99.90
22779;DHT22;11556;51.194;3.800;2022-12-11T14:01:31;3.50;99.90
22779;DHT22;11556;51.194;3.800;2022-12-11T14:04:07;3.50;99.90
22779;DHT22;11556;51.194;3.800;2022-12-11T14:06:35;3.50;99.90
22779;DHT22;11556;51.194;3.800;2022-12-11T14:09:02;3.50;99.90
22779;DHT22;11556;51.194;3.800;2022-12-11T14:11:35;3.50;99.90
22779;DHT22;11556;51.194;3.800;2022-12-11T14:14:04;3.60;99.90
22779;DHT22;11556;51.194;3.800;2022-12-11T14:16:31;3.80;99.90
22779;DHT22;11556;51.194;3.800;2022-12-11T14:19:02;3.70;99.90
22779;DHT22;11556;51.194;3.800;2022-12-11T14:21:29;3.70;99.90
22779;DHT22;11556;51.194;3.800;2022-12-11T14:23:57;3.80;99.90
22779;DHT22;11556;51.194;3.800;2022-12-11T14:26:34;3.70;99.90
22779;DHT22;11556;51.194;3.800;2022-12-11T14:29:02;3.60;99.90
22779;DHT22;11556;51.194;3.800;2022-12-11T14:31:37;3.60;99.90
22779;DHT22;11556;51.194;3.800;2022-12-11T14:34:16;3.40;99.90
22779;DHT22;11556;51.194;3.800;2022-12-11T14:36:43;3.40;99.90
22779;DHT22;11556;51.194;3.800;2022-12-11T14:39:19;3.40;99.90
22779;DHT22;11556;51.194;3.800;2022-12-11T14:42:01;3.50;99.90
22779;DHT22;11556;51.194;3.800;2022-12-11T14:44:31;3.50;99.90
22779;DHT22;11556;51.194;3.800;2022-12-11T14:47:10;3.60;99.90
22779;DHT22;11556;51.194;3.800;2022-12-11T14:52:30;3.70;99.90
22779;DHT22;11556;51.194;3.800;2022-12-11T14:57:39;3.70;99.90
22779;DHT22;11556;51.194;3.800;2022-12-11T15:00:06;3.60;99.90
22779;DHT22;11556;51.194;3.800;2022-12-11T15:02:34;3.60;99.90
22779;DHT22;11556;51.194;3.800;2022-12-11T15:07:36;3.70;99.90
22779;DHT22;11556;51.194;3.800;2022-12-11T15:10:03;3.70;99.90
22779;DHT22;11556;51.194;3.800;2022-12-11T15:12:29;3.70;99.90
22779;DHT22;11556;51.194;3.800;2022-12-11T15:15:00;3.70;99.90
22779;DHT22;11556;51.194;3.800;2022-12-11T15:17:27;3.60;99.90
22779;DHT22;11556;51.194;3.800;2022-12-11T15:19:56;3.60;99.90
22779;DHT22;11556;51.194;3.800;2022-12-11T15:22:26;3.50;99.90
22779;DHT22;11556;51.194;3.800;2022-12-11T15:24:54;3.40;99.90
22779;DHT22;11556;51.194;3.800;2022-12-11T15:29:48;3.20;99.90
22779;DHT22;11556;51.194;3.800;2022-12-11T15:32:17;3.10;99.90
22779;DHT22;11556;51.194;3.800;2022-12-11T15:34:57;3.00;99.90
22779;DHT22;11556;51.194;3.800;2022-12-11T15:37:30;3.10;99.90
22779;DHT22;11556;51.194;3.800;2022-12-11T15:39:58;3.10;99.90
22779;DHT22;11556;51.194;3.800;2022-12-11T15:42:25;3.10;99.90
22779;DHT22;11556;51.194;3.800;2022-12-11T15:44:52;3.10;99.90
22779;DHT22;11556;51.194;3.800;2022-12-11T15:47:22;3.20;99.90
22779;DHT22;11556;51.194;3.800;2022-12-11T15:49:48;3.20;99.90
22779;DHT22;11556;51.194;3.800;2022-12-11T15:52:13;3.10;99.90
22779;DHT22;11556;51.194;3.800;2022-12-11T15:54:39;3.20;99.90
22779;DHT22;11556;51.194;3.800;2022-12-11T15:57:06;3.10;99.90
22779;DHT22;11556;51.194;3.800;2022-12-11T15:59:37;3.20;99.90
22779;DHT22;11556;51.194;3.800;2022-12-11T16:02:03;3.10;99.90
22779;DHT22;11556;51.194;3.800;2022-12-11T16:04:33;3.00;99.90
22779;DHT22;11556;51.194;3.800;2022-12-11T16:06:59;3.10;99.90
22779;DHT22;11556;51.194;3.800;2022-12-11T16:09:24;3.20;99.90
22779;DHT22;11556;51.194;3.800;2022-12-11T16:11:50;3.20;99.90
22779;DHT22;11556;51.194;3.800;2022-12-11T16:14:15;3.20;99.90
22779;DHT22;11556;51.194;3.800;2022-12-11T16:16:41;3.20;99.90
22779;DHT22;11556;51.194;3.800;2022-12-11T16:19:07;3.30;99.90
22779;DHT22;11556;51.194;3.800;2022-12-11T16:21:32;3.30;99.90
22779;DHT22;11556;51.194;3.800;2022-12-11T16:23:58;3.30;99.90
22779;DHT22;11556;51.194;3.800;2022-12-11T16:26:23;3.10;99.90
22779;DHT22;11556;51.194;3.800;2022-12-11T16:28:49;3.20;99.90
22779;DHT22;11556;51.194;3.800;2022-12-11T16:31:15;3.20;99.90
22779;DHT22;11556;51.194;3.800;2022-12-11T16:33:42;3.30;99.90
22779;DHT22;11556;51.194;3.800;2022-12-11T16:36:15;3.30;99.90
22779;DHT22;11556;51.194;3.800;2022-12-11T16:38:46;3.20;99.90
22779;DHT22;11556;51.194;3.800;2022-12-11T16:41:12;3.20;99.90
22779;DHT22;11556;51.194;3.800;2022-12-11T16:43:38;3.30;99.90
22779;DHT22;11556;51.194;3.800;2022-12-11T16:46:04;3.30;99.90
22779;DHT22;11556;51.194;3.800;2022-12-11T16:48:29;3.30;99.90
22779;DHT22;11556;51.194;3.800;2022-12-11T16:50:55;3.20;99.90
22779;DHT22;11556;51.194;3.800;2022-12-11T16:53:22;3.10;99.90
22779;DHT22;11556;51.194;3.800;2022-12-11T16:55:48;2.90;99.90
22779;DHT22;11556;51.194;3.800;2022-12-11T16:58:14;2.90;99.90
22779;DHT22;11556;51.194;3.800;2022-12-11T17:00:45;2.90;99.90
22779;DHT22;11556;51.194;3.800;2022-12-11T17:03:10;2.80;99.90
22779;DHT22;11556;51.194;3.800;2022-12-11T17:05:38;2.90;99.90
22779;DHT22;11556;51.194;3.800;2022-12-11T17:08:04;3.00;99.90
22779;DHT22;11556;51.194;3.800;2022-12-11T17:10:29;2.90;99.90
22779;DHT22;11556;51.194;3.800;2022-12-11T17:12:55;3.00;99.90
22779;DHT22;11556;51.194;3.800;2022-12-11T17:15:21;3.10;99.90
22779;DHT22;11556;51.194;3.800;2022-12-11T17:17:46;3.00;99.90
22779;DHT22;11556;51.194;3.800;2022-12-11T17:20:12;2.90;99.90